createdAt,value
2018-04-01T00:02:07.109Z,92138.48
2018-04-01T00:04:34.147Z,92129.81
2018-04-01T00:07:01.166Z,92121.09
2018-04-01T00:09:28.169Z,92140.69
2018-04-01T00:11:55.225Z,92116.28
2018-04-01T00:14:22.239Z,92101.45
2018-04-01T00:16:49.245Z,92144.10
2018-04-01T00:19:16.270Z,92135.41
2018-04-01T00:21:43.270Z,92151.69
2018-04-01T00:24:10.304Z,92102.69
2018-04-01T00:26:37.487Z,92119.86
2018-04-01T00:29:04.490Z,92134.44
2018-04-01T00:31:31.498Z,92107.67
2018-04-01T00:33:58.527Z,92076.75
2018-04-01T00:36:25.534Z,92126.77
2018-04-01T00:38:52.536Z,92156.58
2018-04-01T00:41:19.594Z,92104.92
2018-04-01T00:43:46.597Z,92125.92
2018-04-01T00:46:13.771Z,92137.89
2018-04-01T00:48:41.445Z,92128.30
2018-04-01T00:51:08.466Z,92124.66
2018-04-01T00:53:35.462Z,92105.87
2018-04-01T00:56:02.810Z,92081.68
2018-04-01T00:58:29.818Z,92101.95
2018-04-01T01:00:56.817Z,92103.03
2018-04-01T01:03:23.932Z,92107.31
2018-04-01T01:05:50.942Z,92129.39
2018-04-01T01:08:17.983Z,92122.40
2018-04-01T01:10:45.301Z,92121.10
2018-04-01T01:13:12.304Z,92121.83
2018-04-01T01:15:39.309Z,92108.48
2018-04-01T01:18:06.634Z,92100.58
2018-04-01T01:20:33.633Z,92098.70
2018-04-01T01:23:00.641Z,92122.88
2018-04-01T01:25:27.774Z,92100.72
2018-04-01T01:27:54.781Z,92109.61
2018-04-01T01:30:21.834Z,92088.72
2018-04-01T01:32:48.842Z,92102.03
2018-04-01T01:35:15.849Z,92126.97
2018-04-01T01:37:42.995Z,92125.34
2018-04-01T01:40:10.013Z,92110.73
2018-04-01T01:42:37.043Z,92125.89
2018-04-01T01:45:04.098Z,92130.44
2018-04-01T01:47:31.112Z,92109.91
2018-04-01T01:49:59.242Z,92116.05
2018-04-01T01:52:26.399Z,92136.78
2018-04-01T01:54:53.402Z,92137.31
2018-04-01T01:57:20.420Z,92132.06
2018-04-01T01:59:47.752Z,92113.17
2018-04-01T02:02:14.762Z,92141.31
2018-04-01T02:04:41.773Z,92136.59
2018-04-01T02:07:08.809Z,92150.01
2018-04-01T02:09:35.835Z,92121.03
2018-04-01T02:12:02.862Z,92155.63
2018-04-01T02:14:29.919Z,92131.15
2018-04-01T02:16:56.920Z,92145.67
2018-04-01T02:19:23.949Z,92135.23
2018-04-01T02:21:51.129Z,92130.94
2018-04-01T02:24:18.158Z,92139.35
2018-04-01T02:26:45.169Z,92129.17
2018-04-01T02:29:12.320Z,92149.41
2018-04-01T02:31:39.339Z,92134.87
2018-04-01T02:34:06.354Z,92139.18
2018-04-01T02:36:33.514Z,92168.09
2018-04-01T02:39:00.521Z,92167.66
2018-04-01T02:41:27.535Z,92157.52
2018-04-01T02:43:54.566Z,92155.86
2018-04-01T02:46:21.576Z,92153.41
2018-04-01T02:48:48.594Z,92140.28
2018-04-01T02:51:15.649Z,92156.34
2018-04-01T02:53:42.649Z,92155.34
2018-04-01T02:56:09.646Z,92172.55
2018-04-01T02:58:36.687Z,92171.81
2018-04-01T03:01:03.688Z,92170.47
2018-04-01T03:03:30.707Z,92163.73
2018-04-01T03:05:57.885Z,92159.61
2018-04-01T03:08:24.892Z,92160.80
2018-04-01T03:10:51.917Z,92152.95
2018-04-01T03:13:18.957Z,92161.80
2018-04-01T03:15:45.968Z,92157.42
2018-04-01T03:18:12.969Z,92152.23
2018-04-01T03:20:40.072Z,92136.93
2018-04-01T03:23:07.098Z,92154.69
2018-04-01T03:25:34.108Z,92141.66
2018-04-01T03:28:01.136Z,92150.20
2018-04-01T03:30:28.152Z,92173.28
2018-04-01T03:32:55.149Z,92157.08
2018-04-01T03:35:22.201Z,92157.00
2018-04-01T03:37:49.218Z,92167.98
2018-04-01T03:40:16.248Z,92178.58
2018-04-01T03:42:43.317Z,92178.32
2018-04-01T03:45:10.347Z,92183.85
2018-04-01T03:47:37.362Z,92202.53
2018-04-01T03:50:04.566Z,92213.83
2018-04-01T03:52:31.563Z,92226.56
2018-04-01T03:54:58.570Z,92241.45
2018-04-01T03:57:25.754Z,92238.60
2018-04-01T03:59:52.757Z,92256.27
2018-04-01T04:02:19.782Z,92252.30
2018-04-01T04:04:46.837Z,92248.59
2018-04-01T04:07:13.881Z,92247.39
2018-04-01T04:09:40.888Z,92246.17
2018-04-01T04:12:08.214Z,92252.78
2018-04-01T04:14:35.222Z,92258.27
2018-04-01T04:17:02.221Z,92276.99
2018-04-01T04:19:29.286Z,92306.42
2018-04-01T04:21:56.294Z,92325.72
2018-04-01T04:24:23.300Z,92331.78
2018-04-01T04:26:50.337Z,92320.34
2018-04-01T04:29:17.341Z,92323.73
2018-04-01T04:31:44.337Z,92318.00
2018-04-01T04:34:11.654Z,92307.64
2018-04-01T04:36:38.656Z,92302.45
2018-04-01T04:39:05.665Z,92328.18
2018-04-01T04:41:32.849Z,92341.19
2018-04-01T04:43:59.837Z,92352.36
2018-04-01T04:46:26.852Z,92397.81
2018-04-01T04:48:53.922Z,92394.20
2018-04-01T04:51:20.922Z,92352.34
2018-04-01T04:53:47.959Z,92321.30
2018-04-01T04:56:15.290Z,92328.21
2018-04-01T04:58:42.289Z,92282.94
2018-04-01T05:01:09.302Z,92296.66
2018-04-01T05:03:36.345Z,92271.28
2018-04-01T05:06:03.353Z,92281.42
2018-04-01T05:08:30.356Z,92302.23
2018-04-01T05:10:57.412Z,92292.53
2018-04-01T05:13:24.422Z,92283.04
2018-04-01T05:15:51.431Z,92286.54
2018-04-01T05:18:18.473Z,92309.66
2018-04-01T05:20:45.464Z,92327.45
2018-04-01T05:23:12.499Z,92302.75
2018-04-01T05:25:39.692Z,92322.06
2018-04-01T05:28:06.721Z,92326.30
2018-04-01T05:30:33.760Z,92291.84
2018-04-01T05:33:00.765Z,92273.42
2018-04-01T05:35:27.777Z,92247.33
2018-04-01T05:37:54.826Z,92250.26
2018-04-01T05:40:21.844Z,92298.43
2018-04-01T05:42:48.871Z,92287.25
2018-04-01T05:45:15.939Z,92283.75
2018-04-01T05:47:42.949Z,92288.64
2018-04-01T05:50:09.965Z,92283.08
2018-04-01T05:52:37.284Z,92314.32
2018-04-01T05:55:04.287Z,92313.09
2018-04-01T05:57:31.299Z,92285.70
2018-04-01T05:59:58.330Z,92280.20
2018-04-01T06:02:26.314Z,92250.47
2018-04-01T06:04:53.338Z,92233.87
2018-04-01T06:07:20.371Z,92220.25
2018-04-01T06:09:47.389Z,92216.59
2018-04-01T06:12:14.428Z,92205.81
2018-04-01T06:14:41.614Z,92187.89
2018-04-01T06:17:08.619Z,92190.30
2018-04-01T06:19:35.652Z,92200.55
2018-04-01T06:22:02.704Z,92209.26
2018-04-01T06:24:29.705Z,92205.36
2018-04-01T06:26:56.721Z,92207.80
2018-04-01T06:29:23.864Z,92217.91
2018-04-01T06:31:50.891Z,92198.59
2018-04-01T06:34:17.897Z,92210.69
2018-04-01T06:36:44.954Z,92221.78
2018-04-01T06:39:11.968Z,92222.48
2018-04-01T06:41:38.975Z,92192.86
2018-04-01T06:44:06.058Z,92206.85
2018-04-01T06:46:33.071Z,92221.72
2018-04-01T06:49:00.075Z,92215.45
2018-04-01T06:51:27.792Z,92238.29
2018-04-01T06:53:54.799Z,92260.05
2018-04-01T06:56:21.802Z,92260.80
2018-04-01T06:58:48.858Z,92271.27
2018-04-01T07:01:15.884Z,92282.88
2018-04-01T07:03:42.890Z,92296.19
2018-04-01T07:06:10.315Z,92281.67
2018-04-01T07:08:37.324Z,92285.25
2018-04-01T07:11:04.345Z,92330.22
2018-04-01T07:13:31.394Z,92307.12
2018-04-01T07:15:58.410Z,92309.81
2018-04-01T07:18:25.421Z,92309.33
2018-04-01T07:20:52.590Z,92326.99
2018-04-01T07:23:19.594Z,92303.58
2018-04-01T07:25:46.640Z,92315.59
2018-04-01T07:28:13.690Z,92301.44
2018-04-01T07:30:40.705Z,92311.20
2018-04-01T07:33:07.718Z,92324.47
2018-04-01T07:35:34.920Z,92321.02
2018-04-01T07:38:01.923Z,92313.89
2018-04-01T07:40:28.937Z,92304.44
2018-04-01T07:42:55.990Z,92306.61
2018-04-01T07:45:23.001Z,92301.42
2018-04-01T07:47:50.009Z,92314.68
2018-04-01T07:50:17.672Z,92305.83
2018-04-01T07:52:44.682Z,92312.32
2018-04-01T07:55:11.704Z,92303.04
2018-04-01T07:57:38.775Z,92308.24
2018-04-01T08:00:05.800Z,92304.23
2018-04-01T08:02:32.813Z,92305.70
2018-04-01T08:05:00.014Z,92291.33
2018-04-01T08:07:27.678Z,92301.42
2018-04-01T08:09:54.694Z,92310.56
2018-04-01T08:12:21.892Z,92294.34
2018-04-01T08:14:48.902Z,92325.13
2018-04-01T08:17:15.940Z,92302.97
2018-04-01T08:19:43.174Z,92296.98
2018-04-01T08:22:10.206Z,92288.92
2018-04-01T08:24:37.230Z,92298.02
2018-04-01T08:27:04.446Z,92290.95
2018-04-01T08:29:31.461Z,92296.38
2018-04-01T08:31:58.481Z,92285.45
2018-04-01T08:34:25.642Z,92285.98
2018-04-01T08:36:52.646Z,92292.34
2018-04-01T08:39:19.652Z,92287.14
2018-04-01T08:41:46.702Z,92281.34
2018-04-01T08:44:13.720Z,92275.52
2018-04-01T08:46:40.745Z,92262.94
2018-04-01T08:49:07.952Z,92272.05
2018-04-01T08:51:34.977Z,92259.30
2018-04-01T08:54:01.983Z,92267.83
2018-04-01T08:56:29.306Z,92262.84
2018-04-01T08:58:56.347Z,92254.83
2018-04-01T09:01:23.367Z,92271.99
2018-04-01T09:03:50.440Z,92248.46
2018-04-01T09:06:17.447Z,92269.02
2018-04-01T09:08:44.460Z,92254.50
2018-04-01T09:11:11.793Z,92268.38
2018-04-01T09:13:38.802Z,92271.75
2018-04-01T09:16:05.810Z,92270.25
2018-04-01T09:18:32.860Z,92275.72
2018-04-01T09:20:59.868Z,92277.98
2018-04-01T09:23:27.051Z,92282.44
2018-04-01T09:25:54.389Z,92281.52
2018-04-01T09:28:21.651Z,92270.52
2018-04-01T09:30:48.664Z,92273.25
2018-04-01T09:33:15.717Z,92275.38
2018-04-01T09:35:42.719Z,92290.74
2018-04-01T09:38:09.760Z,92288.94
2018-04-01T09:40:36.762Z,92287.55
2018-04-01T09:43:03.779Z,92282.48
2018-04-01T09:45:31.434Z,92295.37
2018-04-01T09:47:58.477Z,92299.19
2018-04-01T09:50:25.483Z,92294.22
2018-04-01T09:52:52.526Z,92284.61
2018-04-01T09:55:19.574Z,92286.09
2018-04-01T09:57:46.602Z,92286.58
2018-04-01T10:00:13.692Z,92290.46
2018-04-01T10:02:41.243Z,92276.88
2018-04-01T10:05:10.814Z,92284.69
2018-04-01T10:07:38.393Z,92280.59
2018-04-01T10:10:05.975Z,92274.81
2018-04-01T10:12:33.523Z,92276.42
2018-04-01T10:15:01.259Z,92254.69
2018-04-01T10:17:28.853Z,92285.95
2018-04-01T10:19:56.399Z,92274.78
2018-04-01T10:22:24.130Z,92281.75
2018-04-01T10:24:51.682Z,92290.33
2018-04-01T10:27:19.228Z,92294.91
2018-04-01T10:29:46.952Z,92310.39
2018-04-01T10:32:14.496Z,92299.41
2018-04-01T10:34:42.030Z,92307.03
2018-04-01T10:37:09.599Z,92313.97
2018-04-01T10:39:37.151Z,92323.47
2018-04-01T10:42:04.698Z,92336.86
2018-04-01T10:44:32.288Z,92317.91
2018-04-01T10:46:59.840Z,92310.36
2018-04-01T10:49:27.398Z,92302.94
2018-04-01T10:51:55.125Z,92290.59
2018-04-01T10:54:22.144Z,92285.97
2018-04-01T10:56:49.155Z,92277.56
2018-04-01T10:59:16.199Z,92277.02
2018-04-01T11:01:43.204Z,92267.98
2018-04-01T11:04:10.222Z,92287.91
2018-04-01T11:06:37.546Z,92278.70
2018-04-01T11:09:04.591Z,92274.59
2018-04-01T11:11:31.601Z,92298.30
2018-04-01T11:13:58.928Z,92285.88
2018-04-01T11:16:25.945Z,92334.41
2018-04-01T11:18:52.945Z,92339.83
2018-04-01T11:21:20.231Z,92353.05
2018-04-01T11:23:47.248Z,92400.80
2018-04-01T11:26:14.271Z,92423.03
2018-04-01T11:28:41.461Z,92472.20
2018-04-01T11:31:08.493Z,92515.79
2018-04-01T11:33:35.510Z,92532.73
2018-04-01T11:36:02.551Z,92537.73
2018-04-01T11:38:29.553Z,92544.16
2018-04-01T11:40:56.564Z,92534.94
2018-04-01T11:43:23.649Z,92504.57
2018-04-01T11:45:50.669Z,92492.84
2018-04-01T11:48:17.725Z,92484.80
2018-04-01T11:50:44.774Z,92479.75
2018-04-01T11:53:11.793Z,92469.78
2018-04-01T11:55:38.799Z,92461.50
2018-04-01T11:58:05.835Z,92443.11
2018-04-01T12:00:32.849Z,92444.61
2018-04-01T12:02:59.954Z,92432.14
2018-04-01T12:05:26.989Z,92425.75
2018-04-01T12:07:54.007Z,92432.45
2018-04-01T12:10:21.041Z,92417.80
2018-04-01T12:12:48.103Z,92435.17
2018-04-01T12:15:15.137Z,92429.22
2018-04-01T12:17:42.147Z,92434.11
2018-04-01T12:20:09.415Z,92432.52
2018-04-01T12:22:36.433Z,92439.07
2018-04-01T12:25:03.461Z,92434.89
2018-04-01T12:27:30.739Z,92421.32
2018-04-01T12:29:57.788Z,92424.20
2018-04-01T12:32:24.826Z,92422.53
2018-04-01T12:34:51.869Z,92416.19
2018-04-01T12:37:18.888Z,92412.58
2018-04-01T12:39:45.920Z,92412.84
2018-04-01T12:42:12.980Z,92413.27
2018-04-01T12:44:40.042Z,92412.50
2018-04-01T12:47:07.050Z,92413.53
2018-04-01T12:49:34.268Z,92408.00
2018-04-01T12:52:01.303Z,92403.59
2018-04-01T12:54:28.311Z,92406.73
2018-04-01T12:56:55.513Z,92405.31
2018-04-01T12:59:22.552Z,92393.84
2018-04-01T13:01:49.608Z,92387.70
2018-04-01T13:04:16.934Z,92384.94
2018-04-01T13:06:43.952Z,92390.83
2018-04-01T13:09:10.993Z,92387.23
2018-04-01T13:11:38.054Z,92383.78
2018-04-01T13:14:05.059Z,92379.47
2018-04-01T13:16:32.114Z,92384.67
2018-04-01T13:18:59.204Z,92392.48
2018-04-01T13:21:26.233Z,92403.49
2018-04-01T13:23:53.279Z,92418.05
2018-04-01T13:26:20.502Z,92421.39
2018-04-01T13:28:47.510Z,92426.98
2018-04-01T13:31:14.529Z,92427.49
2018-04-01T13:33:41.570Z,92419.41
2018-04-01T13:36:08.602Z,92425.18
2018-04-01T13:38:35.652Z,92429.60
2018-04-01T13:41:02.688Z,92426.14
2018-04-01T13:43:29.696Z,92426.65
2018-04-01T13:45:56.838Z,92429.20
2018-04-01T13:48:23.864Z,92435.07
2018-04-01T13:50:50.928Z,92454.39
2018-04-01T13:53:18.151Z,92461.59
2018-04-01T13:55:45.179Z,92494.69
2018-04-01T13:58:12.262Z,92544.52
2018-04-01T14:00:39.350Z,92554.96
2018-04-01T14:03:06.369Z,92561.70
2018-04-01T14:05:33.431Z,92561.41
2018-04-01T14:08:00.502Z,92575.11
2018-04-01T14:10:27.517Z,92568.56
2018-04-01T14:12:54.520Z,92579.88
2018-04-01T14:15:21.706Z,92567.92
2018-04-01T14:17:48.732Z,92568.29
2018-04-01T14:20:15.787Z,92566.70
2018-04-01T14:22:42.827Z,92572.84
2018-04-01T14:25:09.875Z,92557.07
2018-04-01T14:27:36.935Z,92553.53
2018-04-01T14:30:03.973Z,92552.06
2018-04-01T14:32:30.974Z,92550.92
2018-04-01T14:34:57.987Z,92543.78
2018-04-01T14:37:25.044Z,92543.25
2018-04-01T14:39:52.091Z,92539.49
2018-04-01T14:42:19.104Z,92532.69
2018-04-01T14:44:47.161Z,92532.52
2018-04-01T14:47:14.225Z,92525.31
2018-04-01T14:49:41.818Z,92523.75
2018-04-01T14:52:08.895Z,92521.34
2018-04-01T14:54:35.911Z,92523.14
2018-04-01T14:57:02.922Z,92538.82
2018-04-01T14:59:30.070Z,92550.70
2018-04-01T15:01:57.085Z,92561.62
2018-04-01T15:04:24.108Z,92572.89
2018-04-01T15:06:51.168Z,92576.00
2018-04-01T15:09:18.204Z,92573.38
2018-04-01T15:11:45.212Z,92579.16
2018-04-01T15:14:12.550Z,92576.84
2018-04-01T15:16:39.574Z,92588.27
2018-04-01T15:19:06.582Z,92585.69
2018-04-01T15:21:33.654Z,92575.51
2018-04-01T15:24:00.674Z,92581.30
2018-04-01T15:26:27.702Z,92589.30
2018-04-01T15:28:54.745Z,92590.97
2018-04-01T15:31:21.757Z,92596.35
2018-04-01T15:33:48.859Z,92596.66
2018-04-01T15:36:15.918Z,92602.86
2018-04-01T15:38:42.926Z,92616.67
2018-04-01T15:41:09.939Z,92618.70
2018-04-01T15:43:36.984Z,92614.20
2018-04-01T15:46:03.999Z,92610.45
2018-04-01T15:48:31.052Z,92615.61
2018-04-01T15:50:58.189Z,92625.13
2018-04-01T15:53:25.245Z,92622.65
2018-04-01T15:55:52.263Z,92644.87
2018-04-01T15:58:19.324Z,92649.06
2018-04-01T16:00:46.343Z,92660.66
2018-04-01T16:03:13.357Z,92675.92
2018-04-01T16:05:40.453Z,92684.94
2018-04-01T16:08:07.512Z,92685.71
2018-04-01T16:10:34.551Z,92710.70
2018-04-01T16:13:01.858Z,92710.81
2018-04-01T16:15:28.866Z,92715.28
2018-04-01T16:17:55.877Z,92718.70
2018-04-01T16:20:23.080Z,92713.31
2018-04-01T16:22:50.118Z,92715.69
2018-04-01T16:25:17.197Z,92720.75
2018-04-01T16:27:44.267Z,92724.94
2018-04-01T16:30:11.314Z,92725.14
2018-04-01T16:32:38.358Z,92740.85
2018-04-01T16:35:05.414Z,92741.81
2018-04-01T16:37:32.434Z,92739.95
2018-04-01T16:39:59.460Z,92744.84
2018-04-01T16:42:26.633Z,92741.69
2018-04-01T16:44:53.631Z,92741.45
2018-04-01T16:47:20.651Z,92742.98
2018-04-01T16:49:47.771Z,92740.97
2018-04-01T16:52:14.790Z,92750.31
2018-04-01T16:54:41.869Z,92753.98
2018-04-01T16:57:08.910Z,92754.42
2018-04-01T16:59:36.012Z,92758.45
2018-04-01T17:02:03.134Z,92755.45
2018-04-01T17:04:30.231Z,92756.39
2018-04-01T17:06:57.275Z,92758.26
2018-04-01T17:09:24.448Z,92758.81
2018-04-01T17:11:51.642Z,92754.53
2018-04-01T17:14:18.675Z,92753.78
2018-04-01T17:16:45.836Z,92758.39
2018-04-01T17:19:12.925Z,92768.06
2018-04-01T17:21:39.987Z,92763.62
2018-04-01T17:24:07.006Z,92752.23
2018-04-01T17:26:34.236Z,92751.92
2018-04-01T17:29:01.264Z,92768.50
2018-04-01T17:31:28.330Z,92766.95
2018-04-01T17:33:55.353Z,92767.50
2018-04-01T17:36:22.388Z,92764.34
2018-04-01T17:38:49.443Z,92763.31
2018-04-01T17:41:16.457Z,92757.27
2018-04-01T17:43:43.464Z,92768.33
2018-04-01T17:46:10.623Z,92775.25
2018-04-01T17:48:37.641Z,92782.78
2018-04-01T17:51:04.658Z,92786.55
2018-04-01T17:53:31.842Z,92789.91
2018-04-01T17:55:58.870Z,92790.38
2018-04-01T17:58:25.897Z,92798.27
2018-04-01T18:00:53.159Z,92789.20
2018-04-01T18:03:20.193Z,92793.95
2018-04-01T18:05:47.229Z,92789.25
2018-04-01T18:08:14.449Z,92804.70
2018-04-01T18:10:41.519Z,92805.70
2018-04-01T18:13:08.565Z,92813.19
2018-04-01T18:15:35.637Z,92809.62
2018-04-01T18:18:02.712Z,92809.19
2018-04-01T18:20:29.734Z,92815.77
2018-04-01T18:22:56.908Z,92818.18
2018-04-01T18:25:23.980Z,92814.27
2018-04-01T18:27:50.999Z,92826.36
2018-04-01T18:30:18.105Z,92830.34
2018-04-01T18:32:45.141Z,92824.80
2018-04-01T18:35:12.153Z,92826.70
2018-04-01T18:37:39.218Z,92825.03
2018-04-01T18:40:06.214Z,92826.28
2018-04-01T18:42:33.242Z,92828.84
2018-04-01T18:45:00.341Z,92825.45
2018-04-01T18:47:27.414Z,92823.02
2018-04-01T18:49:54.436Z,92830.54
2018-04-01T18:52:21.526Z,92832.78
2018-04-01T18:54:48.597Z,92834.54
2018-04-01T18:57:15.621Z,92842.44
2018-04-01T18:59:42.655Z,92846.72
2018-04-01T19:02:09.690Z,92852.64
2018-04-01T19:04:36.748Z,92860.77
2018-04-01T19:07:03.847Z,92863.22
2018-04-01T19:09:30.924Z,92877.47
2018-04-01T19:11:57.951Z,92882.56
2018-04-01T19:14:25.001Z,92881.54
2018-04-01T19:17:08.308Z,92885.45
2018-04-01T19:19:36.069Z,92889.16
2018-04-01T19:22:03.725Z,92882.88
2018-04-01T19:24:31.330Z,92888.61
2018-04-01T19:26:59.085Z,92896.19
2018-04-01T19:29:26.646Z,92890.37
2018-04-01T19:31:54.190Z,92890.86
2018-04-01T19:34:21.761Z,92888.92
2018-04-01T19:36:49.325Z,92881.45
2018-04-01T19:39:17.153Z,92891.48
2018-04-01T19:41:44.751Z,92894.80
2018-04-01T19:44:12.308Z,92893.50
2018-04-01T19:46:40.002Z,92898.56
2018-04-01T19:49:07.600Z,92899.55
2018-04-01T19:51:35.209Z,92902.11
2018-04-01T19:54:02.785Z,92902.54
2018-04-01T19:56:30.370Z,92901.05
2018-04-01T19:58:58.024Z,92903.39
2018-04-01T20:01:25.714Z,92917.30
2018-04-01T20:03:53.523Z,92913.08
2018-04-01T20:06:21.113Z,92926.77
2018-04-01T20:08:48.841Z,92930.98
2018-04-01T20:11:16.452Z,92934.83
2018-04-01T20:13:44.125Z,92937.96
2018-04-01T20:16:11.877Z,92950.16
2018-04-01T20:18:39.438Z,92944.34
2018-04-01T20:21:07.049Z,92962.28
2018-04-01T20:23:34.640Z,92953.06
2018-04-01T20:26:02.210Z,92963.37
2018-04-01T20:28:29.785Z,92959.73
2018-04-01T20:30:57.686Z,92963.06
2018-04-01T20:33:25.295Z,92967.52
2018-04-01T20:35:52.884Z,92975.77
2018-04-01T20:38:20.545Z,92979.50
2018-04-01T20:40:48.104Z,92978.28
2018-04-01T20:43:15.738Z,92982.09
2018-04-01T20:45:43.582Z,92991.66
2018-04-01T20:48:11.138Z,92998.72
2018-04-01T20:50:38.690Z,93007.22
2018-04-01T20:53:06.442Z,93002.98
2018-04-01T20:55:34.033Z,93002.08
2018-04-01T20:58:01.608Z,92997.94
2018-04-01T21:00:29.228Z,93008.61
2018-04-01T21:02:56.794Z,93005.09
2018-04-01T21:05:24.328Z,92999.58
2018-04-01T21:07:51.952Z,93004.34
2018-04-01T21:10:19.518Z,93006.41
2018-04-01T21:12:47.071Z,93014.30
2018-04-01T21:15:14.727Z,93017.17
2018-04-01T21:17:42.290Z,93006.86
2018-04-01T21:20:09.855Z,93015.85
2018-04-01T21:22:37.432Z,93021.78
2018-04-01T21:25:04.985Z,93032.06
2018-04-01T21:27:32.616Z,93028.02
2018-04-01T21:30:00.367Z,93044.36
2018-04-01T21:32:27.954Z,93053.98
2018-04-01T21:34:55.507Z,93050.00
2018-04-01T21:37:23.261Z,93045.50
2018-04-01T21:39:50.812Z,93046.05
2018-04-01T21:42:18.394Z,93043.89
2018-04-01T21:44:46.083Z,93041.48
2018-04-01T21:47:13.643Z,93038.64
2018-04-01T21:49:41.205Z,93040.43
2018-04-01T21:52:08.932Z,93041.75
2018-04-01T21:54:36.484Z,93036.91
2018-04-01T21:57:04.040Z,93033.09
2018-04-01T21:59:31.613Z,93032.56
2018-04-01T22:01:59.165Z,93025.05
2018-04-01T22:04:26.751Z,93032.61
2018-04-01T22:06:54.329Z,93046.30
2018-04-01T22:09:21.902Z,93041.66
2018-04-01T22:11:49.450Z,93049.91
2018-04-01T22:14:17.038Z,93063.15
2018-04-01T22:16:44.575Z,93069.78
2018-04-01T22:19:12.109Z,93061.96
2018-04-01T22:21:39.726Z,93075.19
2018-04-01T22:24:07.263Z,93076.78
2018-04-01T22:26:34.840Z,93077.06
2018-04-01T22:29:02.577Z,93076.44
2018-04-01T22:31:30.159Z,93070.48
2018-04-01T22:33:57.702Z,93071.84
2018-04-01T22:36:25.450Z,93071.17
2018-04-01T22:38:52.993Z,93072.14
2018-04-01T22:41:20.542Z,93084.46
2018-04-01T22:43:48.284Z,93083.98
2018-04-01T22:46:15.842Z,93093.66
2018-04-01T22:48:43.383Z,93107.80
2018-04-01T22:51:10.957Z,93106.77
2018-04-01T22:53:38.500Z,93099.90
2018-04-01T22:56:06.058Z,93103.41
2018-04-01T22:58:33.729Z,93092.77
2018-04-01T23:01:01.273Z,93098.77
2018-04-01T23:03:28.825Z,93102.58
2018-04-01T23:05:56.403Z,93109.98
2018-04-01T23:08:23.941Z,93105.64
2018-04-01T23:10:51.491Z,93108.44
2018-04-01T23:13:19.069Z,93109.58
2018-04-01T23:15:46.602Z,93113.17
2018-04-01T23:18:14.143Z,93106.02
2018-04-01T23:20:41.871Z,93119.82
2018-04-01T23:23:09.437Z,93121.34
2018-04-01T23:25:36.974Z,93107.44
2018-04-01T23:28:04.838Z,93104.61
2018-04-01T23:30:32.381Z,93091.02
2018-04-01T23:32:59.928Z,93102.30
2018-04-01T23:35:27.493Z,93102.66
2018-04-01T23:37:55.023Z,93097.30
2018-04-01T23:40:22.870Z,93115.62
2018-04-01T23:42:50.432Z,93109.59
2018-04-01T23:45:17.966Z,93112.00
2018-04-01T23:47:45.708Z,93110.56
2018-04-01T23:50:13.302Z,93106.95
2018-04-01T23:52:40.858Z,93109.55
2018-04-01T23:55:08.531Z,93107.23
2018-04-01T23:57:36.091Z,93112.30
